sensor_id;sensor_type;location;lat;lon;timestamp;P1;durP1;ratioP1;P2;durP2;ratioP2
53271;SDS011;39160;48.580;7.756;2023-12-20T00:04:46;3.05;;;2.20;;
53271;SDS011;39160;48.580;7.756;2023-12-20T00:09:37;6.82;;;2.15;;
53271;SDS011;39160;48.580;7.756;2023-12-20T00:14:28;3.40;;;1.88;;
53271;SDS011;39160;48.580;7.756;2023-12-20T00:19:18;4.38;;;2.67;;
53271;SDS011;39160;48.580;7.756;2023-12-20T00:24:10;4.57;;;2.05;;
53271;SDS011;39160;48.580;7.756;2023-12-20T00:29:04;3.22;;;1.98;;
53271;SDS011;39160;48.580;7.756;2023-12-20T00:33:55;3.20;;;2.88;;
53271;SDS011;39160;48.580;7.756;2023-12-20T00:38:46;4.22;;;2.33;;
53271;SDS011;39160;48.580;7.756;2023-12-20T00:43:38;4.95;;;2.15;;
53271;SDS011;39160;48.580;7.756;2023-12-20T00:48:29;3.90;;;2.05;;
53271;SDS011;39160;48.580;7.756;2023-12-20T00:53:21;4.00;;;2.65;;
53271;SDS011;39160;48.580;7.756;2023-12-20T00:58:12;3.53;;;2.20;;
53271;SDS011;39160;48.580;7.756;2023-12-20T01:03:05;4.15;;;2.47;;
53271;SDS011;39160;48.580;7.756;2023-12-20T01:07:56;3.30;;;2.80;;
53271;SDS011;39160;48.580;7.756;2023-12-20T01:12:46;4.57;;;1.83;;
53271;SDS011;39160;48.580;7.756;2023-12-20T01:17:37;2.58;;;1.90;;
53271;SDS011;39160;48.580;7.756;2023-12-20T01:22:28;5.55;;;2.05;;
53271;SDS011;39160;48.580;7.756;2023-12-20T01:27:19;3.45;;;1.67;;
53271;SDS011;39160;48.580;7.756;2023-12-20T01:32:09;2.75;;;1.75;;
53271;SDS011;39160;48.580;7.756;2023-12-20T01:37:00;2.80;;;2.13;;
53271;SDS011;39160;48.580;7.756;2023-12-20T01:41:52;3.13;;;1.90;;
53271;SDS011;39160;48.580;7.756;2023-12-20T01:46:43;3.88;;;2.10;;
53271;SDS011;39160;48.580;7.756;2023-12-20T01:51:35;3.63;;;2.25;;
53271;SDS011;39160;48.580;7.756;2023-12-20T01:56:26;4.07;;;2.10;;
53271;SDS011;39160;48.580;7.756;2023-12-20T02:01:19;1.92;;;1.65;;
53271;SDS011;39160;48.580;7.756;2023-12-20T02:06:09;4.60;;;1.90;;
53271;SDS011;39160;48.580;7.756;2023-12-20T02:11:01;2.40;;;1.55;;
53271;SDS011;39160;48.580;7.756;2023-12-20T02:15:52;4.05;;;1.63;;
53271;SDS011;39160;48.580;7.756;2023-12-20T02:20:44;3.30;;;2.00;;
53271;SDS011;39160;48.580;7.756;2023-12-20T02:25:35;3.72;;;2.10;;
53271;SDS011;39160;48.580;7.756;2023-12-20T02:30:27;2.85;;;1.90;;
53271;SDS011;39160;48.580;7.756;2023-12-20T02:35:18;3.67;;;1.75;;
53271;SDS011;39160;48.580;7.756;2023-12-20T02:40:08;3.20;;;2.20;;
53271;SDS011;39160;48.580;7.756;2023-12-20T02:45:00;3.78;;;2.08;;
53271;SDS011;39160;48.580;7.756;2023-12-20T02:49:51;3.70;;;2.22;;
53271;SDS011;39160;48.580;7.756;2023-12-20T02:54:43;3.67;;;1.92;;
53271;SDS011;39160;48.580;7.756;2023-12-20T02:59:33;3.58;;;1.67;;
53271;SDS011;39160;48.580;7.756;2023-12-20T03:04:24;3.47;;;1.77;;
53271;SDS011;39160;48.580;7.756;2023-12-20T03:09:15;2.67;;;1.67;;
53271;SDS011;39160;48.580;7.756;2023-12-20T03:14:06;3.10;;;1.95;;
53271;SDS011;39160;48.580;7.756;2023-12-20T03:18:56;3.10;;;1.67;;
53271;SDS011;39160;48.580;7.756;2023-12-20T03:23:47;3.08;;;1.90;;
53271;SDS011;39160;48.580;7.756;2023-12-20T03:28:38;2.30;;;1.63;;
53271;SDS011;39160;48.580;7.756;2023-12-20T03:33:29;2.55;;;1.67;;
53271;SDS011;39160;48.580;7.756;2023-12-20T03:38:21;3.15;;;1.80;;
53271;SDS011;39160;48.580;7.756;2023-12-20T03:43:13;2.88;;;1.67;;
53271;SDS011;39160;48.580;7.756;2023-12-20T03:48:04;2.92;;;1.70;;
53271;SDS011;39160;48.580;7.756;2023-12-20T03:52:55;1.95;;;1.13;;
53271;SDS011;39160;48.580;7.756;2023-12-20T03:57:46;1.88;;;1.42;;
53271;SDS011;39160;48.580;7.756;2023-12-20T04:02:37;2.70;;;1.58;;
53271;SDS011;39160;48.580;7.756;2023-12-20T04:07:28;2.20;;;1.27;;
53271;SDS011;39160;48.580;7.756;2023-12-20T04:12:20;2.63;;;1.50;;
53271;SDS011;39160;48.580;7.756;2023-12-20T04:17:10;2.22;;;1.45;;
53271;SDS011;39160;48.580;7.756;2023-12-20T04:22:01;2.28;;;1.77;;
53271;SDS011;39160;48.580;7.756;2023-12-20T04:26:52;2.05;;;1.17;;
53271;SDS011;39160;48.580;7.756;2023-12-20T04:31:42;3.05;;;1.48;;
53271;SDS011;39160;48.580;7.756;2023-12-20T04:36:33;2.28;;;1.20;;
53271;SDS011;39160;48.580;7.756;2023-12-20T04:41:24;2.20;;;1.50;;
53271;SDS011;39160;48.580;7.756;2023-12-20T04:46:15;2.75;;;1.48;;
53271;SDS011;39160;48.580;7.756;2023-12-20T04:51:05;1.63;;;1.27;;
53271;SDS011;39160;48.580;7.756;2023-12-20T04:55:56;2.13;;;1.13;;
53271;SDS011;39160;48.580;7.756;2023-12-20T05:00:46;2.08;;;1.45;;
53271;SDS011;39160;48.580;7.756;2023-12-20T05:05:37;2.28;;;1.15;;
53271;SDS011;39160;48.580;7.756;2023-12-20T05:10:28;2.28;;;1.65;;
53271;SDS011;39160;48.580;7.756;2023-12-20T05:15:18;1.52;;;1.20;;
53271;SDS011;39160;48.580;7.756;2023-12-20T05:20:09;2.40;;;1.10;;
53271;SDS011;39160;48.580;7.756;2023-12-20T05:25:00;2.38;;;1.05;;
53271;SDS011;39160;48.580;7.756;2023-12-20T05:29:51;2.75;;;1.20;;
53271;SDS011;39160;48.580;7.756;2023-12-20T05:34:41;2.38;;;1.30;;
53271;SDS011;39160;48.580;7.756;2023-12-20T05:39:32;3.60;;;1.50;;
53271;SDS011;39160;48.580;7.756;2023-12-20T05:44:23;2.55;;;1.58;;
53271;SDS011;39160;48.580;7.756;2023-12-20T05:49:13;1.27;;;1.17;;
53271;SDS011;39160;48.580;7.756;2023-12-20T05:54:04;3.20;;;1.52;;
53271;SDS011;39160;48.580;7.756;2023-12-20T05:58:54;2.47;;;1.40;;
53271;SDS011;39160;48.580;7.756;2023-12-20T06:03:45;1.50;;;1.30;;
53271;SDS011;39160;48.580;7.756;2023-12-20T06:08:36;1.52;;;1.10;;
53271;SDS011;39160;48.580;7.756;2023-12-20T06:13:26;1.80;;;0.98;;
53271;SDS011;39160;48.580;7.756;2023-12-20T06:18:17;2.85;;;0.88;;
53271;SDS011;39160;48.580;7.756;2023-12-20T06:23:08;2.05;;;1.20;;
53271;SDS011;39160;48.580;7.756;2023-12-20T06:27:58;1.98;;;1.20;;
53271;SDS011;39160;48.580;7.756;2023-12-20T06:32:49;1.50;;;1.08;;
53271;SDS011;39160;48.580;7.756;2023-12-20T06:37:40;2.80;;;1.17;;
53271;SDS011;39160;48.580;7.756;2023-12-20T06:42:33;1.80;;;0.93;;
53271;SDS011;39160;48.580;7.756;2023-12-20T06:47:24;2.50;;;1.70;;
53271;SDS011;39160;48.580;7.756;2023-12-20T06:52:14;2.17;;;1.92;;
53271;SDS011;39160;48.580;7.756;2023-12-20T06:57:05;1.55;;;0.90;;
53271;SDS011;39160;48.580;7.756;2023-12-20T07:01:56;1.05;;;0.65;;
53271;SDS011;39160;48.580;7.756;2023-12-20T07:06:47;1.02;;;0.50;;
53271;SDS011;39160;48.580;7.756;2023-12-20T07:11:41;1.13;;;0.70;;
53271;SDS011;39160;48.580;7.756;2023-12-20T07:16:32;1.05;;;0.65;;
53271;SDS011;39160;48.580;7.756;2023-12-20T07:21:22;0.60;;;0.50;;
53271;SDS011;39160;48.580;7.756;2023-12-20T07:26:13;0.40;;;0.40;;
53271;SDS011;39160;48.580;7.756;2023-12-20T07:31:04;0.98;;;0.90;;
53271;SDS011;39160;48.580;7.756;2023-12-20T07:35:54;1.42;;;0.82;;
53271;SDS011;39160;48.580;7.756;2023-12-20T07:40:45;1.17;;;0.82;;
53271;SDS011;39160;48.580;7.756;2023-12-20T07:45:36;2.80;;;1.40;;
53271;SDS011;39160;48.580;7.756;2023-12-20T07:50:26;2.25;;;1.20;;
53271;SDS011;39160;48.580;7.756;2023-12-20T07:55:20;3.83;;;1.50;;
53271;SDS011;39160;48.580;7.756;2023-12-20T08:00:11;1.88;;;1.65;;
53271;SDS011;39160;48.580;7.756;2023-12-20T08:05:02;2.13;;;1.38;;
53271;SDS011;39160;48.580;7.756;2023-12-20T08:09:53;3.55;;;2.13;;
53271;SDS011;39160;48.580;7.756;2023-12-20T08:14:44;1.75;;;1.55;;
53271;SDS011;39160;48.580;7.756;2023-12-20T08:19:36;2.97;;;1.45;;
53271;SDS011;39160;48.580;7.756;2023-12-20T08:24:26;3.25;;;1.77;;
53271;SDS011;39160;48.580;7.756;2023-12-20T08:29:17;2.20;;;1.55;;
53271;SDS011;39160;48.580;7.756;2023-12-20T08:34:08;3.45;;;1.42;;
53271;SDS011;39160;48.580;7.756;2023-12-20T08:38:58;4.05;;;1.92;;
53271;SDS011;39160;48.580;7.756;2023-12-20T08:43:53;2.28;;;1.67;;
53271;SDS011;39160;48.580;7.756;2023-12-20T08:48:44;2.25;;;1.85;;
53271;SDS011;39160;48.580;7.756;2023-12-20T08:53:34;3.05;;;1.52;;
53271;SDS011;39160;48.580;7.756;2023-12-20T08:58:25;3.13;;;1.67;;
53271;SDS011;39160;48.580;7.756;2023-12-20T09:03:16;3.90;;;1.23;;
53271;SDS011;39160;48.580;7.756;2023-12-20T09:08:06;2.55;;;1.42;;
53271;SDS011;39160;48.580;7.756;2023-12-20T09:12:59;1.85;;;1.10;;
53271;SDS011;39160;48.580;7.756;2023-12-20T09:17:50;2.03;;;1.33;;
53271;SDS011;39160;48.580;7.756;2023-12-20T09:22:41;1.50;;;1.33;;
53271;SDS011;39160;48.580;7.756;2023-12-20T09:27:32;1.27;;;1.15;;
53271;SDS011;39160;48.580;7.756;2023-12-20T09:32:22;2.15;;;1.10;;
53271;SDS011;39160;48.580;7.756;2023-12-20T09:37:13;2.85;;;1.52;;
53271;SDS011;39160;48.580;7.756;2023-12-20T09:42:04;1.52;;;1.17;;
53271;SDS011;39160;48.580;7.756;2023-12-20T09:46:56;6.60;;;3.08;;
53271;SDS011;39160;48.580;7.756;2023-12-20T09:51:47;4.55;;;1.85;;
53271;SDS011;39160;48.580;7.756;2023-12-20T09:56:43;5.25;;;1.50;;
53271;SDS011;39160;48.580;7.756;2023-12-20T10:01:35;3.03;;;1.45;;
53271;SDS011;39160;48.580;7.756;2023-12-20T10:06:27;5.35;;;1.50;;
53271;SDS011;39160;48.580;7.756;2023-12-20T10:11:18;3.28;;;1.90;;
53271;SDS011;39160;48.580;7.756;2023-12-20T10:16:09;1.98;;;1.20;;
53271;SDS011;39160;48.580;7.756;2023-12-20T10:21:00;1.73;;;1.20;;
53271;SDS011;39160;48.580;7.756;2023-12-20T10:25:57;4.20;;;2.13;;
53271;SDS011;39160;48.580;7.756;2023-12-20T10:30:51;4.72;;;1.75;;
53271;SDS011;39160;48.580;7.756;2023-12-20T10:35:41;3.30;;;1.63;;
53271;SDS011;39160;48.580;7.756;2023-12-20T10:40:36;4.85;;;2.78;;
53271;SDS011;39160;48.580;7.756;2023-12-20T10:45:27;3.92;;;1.73;;
53271;SDS011;39160;48.580;7.756;2023-12-20T10:50:18;7.05;;;2.97;;
53271;SDS011;39160;48.580;7.756;2023-12-20T10:55:10;4.65;;;1.58;;
53271;SDS011;39160;48.580;7.756;2023-12-20T11:00:02;8.00;;;2.00;;
53271;SDS011;39160;48.580;7.756;2023-12-20T11:04:59;6.47;;;1.55;;
53271;SDS011;39160;48.580;7.756;2023-12-20T11:15:06;6.20;;;2.05;;
53271;SDS011;39160;48.580;7.756;2023-12-20T11:24:49;3.75;;;1.52;;
53271;SDS011;39160;48.580;7.756;2023-12-20T11:29:41;2.53;;;1.38;;
53271;SDS011;39160;48.580;7.756;2023-12-20T11:34:46;2.30;;;1.38;;
53271;SDS011;39160;48.580;7.756;2023-12-20T11:39:37;2.55;;;0.90;;
53271;SDS011;39160;48.580;7.756;2023-12-20T11:44:27;4.72;;;1.35;;
53271;SDS011;39160;48.580;7.756;2023-12-20T11:49:23;2.28;;;1.02;;
53271;SDS011;39160;48.580;7.756;2023-12-20T11:54:14;3.00;;;0.82;;
53271;SDS011;39160;48.580;7.756;2023-12-20T11:59:07;2.08;;;1.40;;
53271;SDS011;39160;48.580;7.756;2023-12-20T12:04:05;2.90;;;1.40;;
53271;SDS011;39160;48.580;7.756;2023-12-20T12:08:56;5.78;;;1.35;;
53271;SDS011;39160;48.580;7.756;2023-12-20T12:13:46;1.88;;;1.40;;
53271;SDS011;39160;48.580;7.756;2023-12-20T12:18:37;2.92;;;1.50;;
53271;SDS011;39160;48.580;7.756;2023-12-20T12:23:28;3.55;;;0.88;;
53271;SDS011;39160;48.580;7.756;2023-12-20T12:28:18;2.95;;;1.25;;
53271;SDS011;39160;48.580;7.756;2023-12-20T12:33:09;2.03;;;1.30;;
53271;SDS011;39160;48.580;7.756;2023-12-20T12:38:00;1.35;;;1.15;;
53271;SDS011;39160;48.580;7.756;2023-12-20T12:42:53;6.97;;;1.45;;
53271;SDS011;39160;48.580;7.756;2023-12-20T12:47:43;2.63;;;1.23;;
53271;SDS011;39160;48.580;7.756;2023-12-20T12:52:35;2.60;;;0.98;;
53271;SDS011;39160;48.580;7.756;2023-12-20T12:57:26;2.03;;;0.75;;
53271;SDS011;39160;48.580;7.756;2023-12-20T13:02:17;2.88;;;1.23;;
53271;SDS011;39160;48.580;7.756;2023-12-20T13:07:08;4.25;;;1.15;;
53271;SDS011;39160;48.580;7.756;2023-12-20T13:12:01;1.33;;;0.80;;
53271;SDS011;39160;48.580;7.756;2023-12-20T13:16:54;2.05;;;0.90;;
53271;SDS011;39160;48.580;7.756;2023-12-20T13:21:45;4.13;;;1.25;;
53271;SDS011;39160;48.580;7.756;2023-12-20T13:26:36;4.07;;;1.00;;
53271;SDS011;39160;48.580;7.756;2023-12-20T13:31:27;0.98;;;0.55;;
53271;SDS011;39160;48.580;7.756;2023-12-20T13:36:18;2.72;;;0.88;;
53271;SDS011;39160;48.580;7.756;2023-12-20T13:41:13;3.20;;;1.27;;
53271;SDS011;39160;48.580;7.756;2023-12-20T13:46:04;1.90;;;0.75;;
53271;SDS011;39160;48.580;7.756;2023-12-20T13:50:54;3.30;;;0.75;;
53271;SDS011;39160;48.580;7.756;2023-12-20T13:55:45;1.08;;;0.82;;
53271;SDS011;39160;48.580;7.756;2023-12-20T14:00:36;3.90;;;1.05;;
53271;SDS011;39160;48.580;7.756;2023-12-20T14:05:26;2.42;;;1.08;;
53271;SDS011;39160;48.580;7.756;2023-12-20T14:10:18;3.55;;;0.85;;
53271;SDS011;39160;48.580;7.756;2023-12-20T14:15:09;3.13;;;1.15;;
53271;SDS011;39160;48.580;7.756;2023-12-20T14:20:01;1.17;;;0.88;;
53271;SDS011;39160;48.580;7.756;2023-12-20T14:24:51;4.28;;;0.80;;
53271;SDS011;39160;48.580;7.756;2023-12-20T14:29:42;4.97;;;1.00;;
53271;SDS011;39160;48.580;7.756;2023-12-20T14:34:33;6.05;;;1.70;;
53271;SDS011;39160;48.580;7.756;2023-12-20T14:39:23;3.70;;;1.48;;
53271;SDS011;39160;48.580;7.756;2023-12-20T14:44:14;3.85;;;1.70;;
53271;SDS011;39160;48.580;7.756;2023-12-20T14:49:05;4.10;;;1.90;;
53271;SDS011;39160;48.580;7.756;2023-12-20T14:53:56;2.28;;;1.45;;
53271;SDS011;39160;48.580;7.756;2023-12-20T14:58:47;3.78;;;1.48;;
53271;SDS011;39160;48.580;7.756;2023-12-20T15:03:38;4.65;;;1.60;;
53271;SDS011;39160;48.580;7.756;2023-12-20T15:08:30;5.72;;;1.40;;
53271;SDS011;39160;48.580;7.756;2023-12-20T15:13:20;3.33;;;1.30;;
53271;SDS011;39160;48.580;7.756;2023-12-20T15:18:11;4.65;;;1.50;;
53271;SDS011;39160;48.580;7.756;2023-12-20T15:23:02;3.60;;;1.08;;
53271;SDS011;39160;48.580;7.756;2023-12-20T15:27:56;3.70;;;1.40;;
53271;SDS011;39160;48.580;7.756;2023-12-20T15:32:47;2.30;;;1.00;;
53271;SDS011;39160;48.580;7.756;2023-12-20T15:37:38;3.58;;;1.13;;
53271;SDS011;39160;48.580;7.756;2023-12-20T15:42:29;4.25;;;1.20;;
53271;SDS011;39160;48.580;7.756;2023-12-20T15:47:26;3.20;;;1.13;;
53271;SDS011;39160;48.580;7.756;2023-12-20T15:52:17;3.30;;;1.00;;
53271;SDS011;39160;48.580;7.756;2023-12-20T15:57:07;1.55;;;0.63;;
53271;SDS011;39160;48.580;7.756;2023-12-20T16:01:59;3.80;;;1.48;;
53271;SDS011;39160;48.580;7.756;2023-12-20T16:06:50;4.95;;;2.03;;
53271;SDS011;39160;48.580;7.756;2023-12-20T16:11:40;1.95;;;1.17;;
53271;SDS011;39160;48.580;7.756;2023-12-20T16:16:32;5.15;;;2.38;;
53271;SDS011;39160;48.580;7.756;2023-12-20T16:21:23;4.10;;;1.48;;
53271;SDS011;39160;48.580;7.756;2023-12-20T16:26:14;3.15;;;1.10;;
53271;SDS011;39160;48.580;7.756;2023-12-20T16:31:05;3.17;;;1.00;;
53271;SDS011;39160;48.580;7.756;2023-12-20T16:35:56;3.35;;;1.17;;
53271;SDS011;39160;48.580;7.756;2023-12-20T16:40:47;1.67;;;1.00;;
53271;SDS011;39160;48.580;7.756;2023-12-20T16:45:38;2.92;;;1.65;;
53271;SDS011;39160;48.580;7.756;2023-12-20T16:50:28;4.05;;;1.50;;
53271;SDS011;39160;48.580;7.756;2023-12-20T16:55:19;3.08;;;1.38;;
53271;SDS011;39160;48.580;7.756;2023-12-20T17:00:10;3.92;;;1.20;;
53271;SDS011;39160;48.580;7.756;2023-12-20T17:05:01;2.75;;;1.63;;
53271;SDS011;39160;48.580;7.756;2023-12-20T17:09:52;1.40;;;0.98;;
53271;SDS011;39160;48.580;7.756;2023-12-20T17:14:43;5.03;;;2.08;;
53271;SDS011;39160;48.580;7.756;2023-12-20T17:19:34;3.65;;;1.50;;
53271;SDS011;39160;48.580;7.756;2023-12-20T17:24:25;4.25;;;1.65;;
53271;SDS011;39160;48.580;7.756;2023-12-20T17:29:17;2.45;;;2.10;;
53271;SDS011;39160;48.580;7.756;2023-12-20T17:34:08;4.88;;;1.63;;
53271;SDS011;39160;48.580;7.756;2023-12-20T17:39:01;2.65;;;1.20;;
53271;SDS011;39160;48.580;7.756;2023-12-20T17:43:52;3.10;;;1.20;;
53271;SDS011;39160;48.580;7.756;2023-12-20T17:48:44;3.22;;;1.27;;
53271;SDS011;39160;48.580;7.756;2023-12-20T17:53:35;2.30;;;1.10;;
53271;SDS011;39160;48.580;7.756;2023-12-20T17:58:26;3.40;;;1.55;;
53271;SDS011;39160;48.580;7.756;2023-12-20T18:03:17;5.50;;;1.75;;
53271;SDS011;39160;48.580;7.756;2023-12-20T18:08:08;2.97;;;1.73;;
53271;SDS011;39160;48.580;7.756;2023-12-20T18:12:58;4.05;;;1.98;;
53271;SDS011;39160;48.580;7.756;2023-12-20T18:17:49;2.40;;;1.98;;
53271;SDS011;39160;48.580;7.756;2023-12-20T18:22:41;2.83;;;1.52;;
53271;SDS011;39160;48.580;7.756;2023-12-20T18:27:32;3.22;;;1.80;;
53271;SDS011;39160;48.580;7.756;2023-12-20T18:32:22;3.90;;;1.95;;
53271;SDS011;39160;48.580;7.756;2023-12-20T18:37:14;5.90;;;1.98;;
53271;SDS011;39160;48.580;7.756;2023-12-20T18:42:06;4.38;;;1.48;;
53271;SDS011;39160;48.580;7.756;2023-12-20T18:47:00;3.55;;;1.15;;
53271;SDS011;39160;48.580;7.756;2023-12-20T18:51:50;2.97;;;2.05;;
53271;SDS011;39160;48.580;7.756;2023-12-20T18:56:41;3.17;;;1.55;;
53271;SDS011;39160;48.580;7.756;2023-12-20T19:01:32;2.20;;;1.77;;
53271;SDS011;39160;48.580;7.756;2023-12-20T19:06:23;2.55;;;1.15;;
53271;SDS011;39160;48.580;7.756;2023-12-20T19:11:14;4.57;;;1.50;;
53271;SDS011;39160;48.580;7.756;2023-12-20T19:16:05;1.85;;;1.42;;
53271;SDS011;39160;48.580;7.756;2023-12-20T19:20:56;1.75;;;0.90;;
53271;SDS011;39160;48.580;7.756;2023-12-20T19:25:46;4.00;;;1.25;;
53271;SDS011;39160;48.580;7.756;2023-12-20T19:30:43;3.03;;;1.50;;
53271;SDS011;39160;48.580;7.756;2023-12-20T19:35:34;2.65;;;1.52;;
53271;SDS011;39160;48.580;7.756;2023-12-20T19:40:25;2.05;;;1.58;;
53271;SDS011;39160;48.580;7.756;2023-12-20T19:45:15;4.97;;;1.95;;
53271;SDS011;39160;48.580;7.756;2023-12-20T19:50:06;2.70;;;1.23;;
53271;SDS011;39160;48.580;7.756;2023-12-20T19:54:57;2.53;;;1.48;;
53271;SDS011;39160;48.580;7.756;2023-12-20T19:59:49;3.92;;;2.22;;
53271;SDS011;39160;48.580;7.756;2023-12-20T20:04:39;3.53;;;1.40;;
53271;SDS011;39160;48.580;7.756;2023-12-20T20:09:30;3.50;;;1.73;;
53271;SDS011;39160;48.580;7.756;2023-12-20T20:14:21;5.18;;;1.50;;
53271;SDS011;39160;48.580;7.756;2023-12-20T20:19:17;1.70;;;1.10;;
53271;SDS011;39160;48.580;7.756;2023-12-20T20:24:07;3.45;;;1.30;;
53271;SDS011;39160;48.580;7.756;2023-12-20T20:28:58;3.33;;;1.27;;
53271;SDS011;39160;48.580;7.756;2023-12-20T20:33:49;4.05;;;1.70;;
53271;SDS011;39160;48.580;7.756;2023-12-20T20:38:40;3.58;;;1.75;;
53271;SDS011;39160;48.580;7.756;2023-12-20T20:43:31;2.08;;;1.35;;
53271;SDS011;39160;48.580;7.756;2023-12-20T20:48:21;3.00;;;1.38;;
53271;SDS011;39160;48.580;7.756;2023-12-20T20:53:14;3.53;;;1.10;;
53271;SDS011;39160;48.580;7.756;2023-12-20T20:58:05;2.30;;;1.90;;
53271;SDS011;39160;48.580;7.756;2023-12-20T21:02:55;3.33;;;1.42;;
53271;SDS011;39160;48.580;7.756;2023-12-20T21:07:46;3.33;;;1.70;;
53271;SDS011;39160;48.580;7.756;2023-12-20T21:12:37;1.50;;;0.98;;
53271;SDS011;39160;48.580;7.756;2023-12-20T21:17:36;1.75;;;1.05;;
53271;SDS011;39160;48.580;7.756;2023-12-20T21:22:32;2.22;;;1.52;;
53271;SDS011;39160;48.580;7.756;2023-12-20T21:27:23;5.65;;;1.50;;
53271;SDS011;39160;48.580;7.756;2023-12-20T21:32:14;3.47;;;1.35;;
53271;SDS011;39160;48.580;7.756;2023-12-20T21:37:05;1.52;;;0.80;;
53271;SDS011;39160;48.580;7.756;2023-12-20T21:42:02;1.40;;;1.27;;
53271;SDS011;39160;48.580;7.756;2023-12-20T21:46:54;1.83;;;1.00;;
53271;SDS011;39160;48.580;7.756;2023-12-20T21:51:48;3.42;;;1.20;;
53271;SDS011;39160;48.580;7.756;2023-12-20T21:56:40;2.03;;;1.25;;
53271;SDS011;39160;48.580;7.756;2023-12-20T22:01:31;3.05;;;1.00;;
53271;SDS011;39160;48.580;7.756;2023-12-20T22:06:22;2.95;;;1.20;;
53271;SDS011;39160;48.580;7.756;2023-12-20T22:11:14;1.60;;;0.80;;
53271;SDS011;39160;48.580;7.756;2023-12-20T22:16:04;2.10;;;0.80;;
53271;SDS011;39160;48.580;7.756;2023-12-20T22:20:57;3.25;;;1.02;;
53271;SDS011;39160;48.580;7.756;2023-12-20T22:25:49;2.60;;;0.88;;
53271;SDS011;39160;48.580;7.756;2023-12-20T22:30:40;4.28;;;1.40;;
53271;SDS011;39160;48.580;7.756;2023-12-20T22:35:31;1.90;;;0.90;;
53271;SDS011;39160;48.580;7.756;2023-12-20T22:40:22;1.42;;;1.08;;
53271;SDS011;39160;48.580;7.756;2023-12-20T22:45:12;1.00;;;0.77;;
53271;SDS011;39160;48.580;7.756;2023-12-20T22:50:03;2.75;;;1.15;;
53271;SDS011;39160;48.580;7.756;2023-12-20T22:54:54;1.00;;;0.80;;
53271;SDS011;39160;48.580;7.756;2023-12-20T22:59:45;1.65;;;0.70;;
53271;SDS011;39160;48.580;7.756;2023-12-20T23:04:38;0.70;;;0.63;;
53271;SDS011;39160;48.580;7.756;2023-12-20T23:09:30;1.75;;;1.15;;
53271;SDS011;39160;48.580;7.756;2023-12-20T23:14:21;2.90;;;1.00;;
53271;SDS011;39160;48.580;7.756;2023-12-20T23:19:11;1.23;;;0.90;;
53271;SDS011;39160;48.580;7.756;2023-12-20T23:24:02;0.68;;;0.60;;
53271;SDS011;39160;48.580;7.756;2023-12-20T23:28:53;1.15;;;0.80;;
53271;SDS011;39160;48.580;7.756;2023-12-20T23:33:44;1.33;;;0.60;;
53271;SDS011;39160;48.580;7.756;2023-12-20T23:38:35;1.52;;;0.57;;
53271;SDS011;39160;48.580;7.756;2023-12-20T23:43:26;2.50;;;1.13;;
53271;SDS011;39160;48.580;7.756;2023-12-20T23:48:17;0.82;;;0.60;;
53271;SDS011;39160;48.580;7.756;2023-12-20T23:53:07;1.58;;;0.90;;
53271;SDS011;39160;48.580;7.756;2023-12-20T23:57:58;0.90;;;0.65;;
